Terminal Aerodrome Forecast
Issued by NWS Wilmington, OH

Current Version | Previous Version | Text Only | Print | Product List | Glossary On
Versions: 1 2 3 4 5 6 7 8 9 10 11 12 13 14 15 16 17 18 19 20 21 22 23 24 25 26 27 28 29 30
000
FTUS41 KILN 312300
TAFCVG
TAF
KCVG 312326Z 0100/0206 20004KT P6SM OVC100
     FM010200 19004KT P6SM -RA OVC040
     FM010700 12004KT P6SM BKN050 OVC080
     FM011200 14006KT P6SM OVC080
     FM011800 16012KT 4SM -RA BR OVC025
     FM012100 17010KT 2SM RA BR OVC006
     FM020300 21010KT 5SM BR VCSH OVC008=

USA.gov is the U.S. government's official web portal to all federal, state and local government web resources and services.